Time;durP1;ratioP1;P1;durP2;ratioP2;P2;SDS_P1;SDS_P2;PMS_P1;PMS_P2;Temp;Humidity;BMP_temperature;BMP_pressure;BME280_temperature;BME280_humidity;BME280_pressure;Samples;Min_cycle;Max_cycle;Signal;HPM_P1;HPM_P2
2022/03/23 00:01:09;;;;;;;44.60;22.80;;;;;;;;;;5109947;28;20557;-63
2022/03/23 00:03:37;;;;;;;44.58;25.08;;;;;;;;;;5106474;28;20066;-62
2022/03/23 00:06:03;;;;;;;44.83;25.73;;;;;;;;;;5101125;28;20088;-61
2022/03/23 00:08:29;;;;;;;43.17;23.25;;;;;;;;;;5087172;28;20096;-61
2022/03/23 00:10:56;;;;;;;42.60;24.50;;;;;;;;;;5084508;28;20070;-61
2022/03/23 00:13:24;;;;;;;46.63;25.77;;;;;;;;;;5083954;28;20048;-61
2022/03/23 00:15:53;;;;;;;56.30;27.63;;;;;;;;;;5085119;28;20383;-62
2022/03/23 00:18:19;;;;;;;48.60;26.88;;;;;;;;;;5101659;28;20529;-62
2022/03/23 00:20:45;;;;;;;43.53;24.73;;;;;;;;;;5053084;28;20143;-62
2022/03/23 00:23:12;;;;;;;50.50;26.33;;;;;;;;;;5085318;28;20972;-63
2022/03/23 00:25:42;;;;;;;44.28;25.35;;;;;;;;;;5087882;28;20088;-62
2022/03/23 00:28:07;;;;;;;42.05;24.40;;;;;;;;;;5085232;28;20139;-62
2022/03/23 00:30:37;;;;;;;47.03;25.83;;;;;;;;;;5089850;28;20055;-61
2022/03/23 00:33:03;;;;;;;41.10;24.48;;;;;;;;;;5067835;28;20127;-62
2022/03/23 00:35:32;;;;;;;47.55;26.60;;;;;;;;;;5087777;28;20044;-61
2022/03/23 00:37:59;;;;;;;46.20;25.10;;;;;;;;;;5090370;28;20096;-61
2022/03/23 00:40:25;;;;;;;41.50;23.60;;;;;;;;;;5111645;28;20096;-61
2022/03/23 00:42:51;;;;;;;47.67;24.67;;;;;;;;;;5071589;28;20039;-63
2022/03/23 00:45:18;;;;;;;53.78;27.10;;;;;;;;;;5104192;28;20491;-62
2022/03/23 00:47:45;;;;;;;47.75;25.65;;;;;;;;;;5089154;28;20079;-63
2022/03/23 00:50:11;;;;;;;52.25;27.73;;;;;;;;;;5072175;28;20129;-64
2022/03/23 00:52:38;;;;;;;47.55;25.90;;;;;;;;;;5069323;28;20040;-62
2022/03/23 00:55:05;;;;;;;44.85;25.10;;;;;;;;;;5071366;22;20052;-62
2022/03/23 00:57:31;;;;;;;49.63;26.70;;;;;;;;;;5068993;28;20110;-62
2022/03/23 00:59:57;;;;;;;46.22;25.05;;;;;;;;;;5062418;28;20494;-63
2022/03/23 01:02:23;;;;;;;53.65;29.10;;;;;;;;;;5079265;28;20048;-62
2022/03/23 01:04:49;;;;;;;53.35;26.33;;;;;;;;;;5061506;28;20070;-62
2022/03/23 01:07:15;;;;;;;50.72;26.42;;;;;;;;;;5062822;28;20131;-62
2022/03/23 01:09:41;;;;;;;57.92;27.88;;;;;;;;;;5064547;28;20476;-62
2022/03/23 01:12:08;;;;;;;46.13;27.08;;;;;;;;;;5062254;28;20028;-61
2022/03/23 01:14:34;;;;;;;54.42;29.58;;;;;;;;;;5068194;28;20119;-63
2022/03/23 01:17:00;;;;;;;51.75;28.67;;;;;;;;;;5080279;28;20134;-63
2022/03/23 01:19:27;;;;;;;53.75;28.05;;;;;;;;;;5063560;28;20040;-61
2022/03/23 01:21:54;;;;;;;56.72;27.52;;;;;;;;;;5060184;28;20044;-64
2022/03/23 01:24:20;;;;;;;50.28;27.80;;;;;;;;;;5045261;28;20202;-62
2022/03/23 01:26:46;;;;;;;49.28;27.63;;;;;;;;;;5061047;28;20555;-62
2022/03/23 01:29:13;;;;;;;50.78;28.33;;;;;;;;;;5066314;28;20124;-62
2022/03/23 01:31:39;;;;;;;56.15;29.38;;;;;;;;;;5067902;28;20041;-62
2022/03/23 01:34:05;;;;;;;55.63;30.95;;;;;;;;;;5060090;28;20044;-62
2022/03/23 01:36:32;;;;;;;53.17;27.38;;;;;;;;;;5063030;28;20041;-62
2022/03/23 01:38:58;;;;;;;48.55;28.35;;;;;;;;;;5063715;28;20625;-63
2022/03/23 01:41:25;;;;;;;52.60;27.77;;;;;;;;;;5043151;28;20128;-63
2022/03/23 01:43:51;;;;;;;46.83;26.33;;;;;;;;;;5073485;28;20032;-62
2022/03/23 01:46:20;;;;;;;49.83;27.90;;;;;;;;;;5041039;28;20036;-62
2022/03/23 01:48:47;;;;;;;52.80;27.90;;;;;;;;;;5050186;28;20044;-62
2022/03/23 01:51:14;;;;;;;50.70;27.70;;;;;;;;;;5066209;28;20492;-61
2022/03/23 01:53:40;;;;;;;61.40;30.20;;;;;;;;;;5057304;28;20067;-62
2022/03/23 01:56:08;;;;;;;52.50;28.58;;;;;;;;;;5033299;28;20048;-62
2022/03/23 01:58:34;;;;;;;62.55;30.85;;;;;;;;;;5045563;28;20380;-62
2022/03/23 02:01:00;;;;;;;61.83;31.83;;;;;;;;;;5023926;28;20126;-63
2022/03/23 02:03:26;;;;;;;71.50;34.30;;;;;;;;;;5034572;28;20100;-62
2022/03/23 02:05:52;;;;;;;52.97;30.00;;;;;;;;;;5038996;28;20055;-62
2022/03/23 02:08:21;;;;;;;51.00;28.60;;;;;;;;;;5048166;28;20029;-63
2022/03/23 02:10:47;;;;;;;50.03;28.40;;;;;;;;;;5027667;28;20136;-62
2022/03/23 02:13:16;;;;;;;58.97;32.83;;;;;;;;;;5012894;28;20049;-62
2022/03/23 02:15:42;;;;;;;68.85;35.22;;;;;;;;;;5051564;28;20120;-62
2022/03/23 02:18:08;;;;;;;61.80;31.48;;;;;;;;;;5039953;28;20047;-62
2022/03/23 02:20:34;;;;;;;64.35;36.10;;;;;;;;;;5030695;28;20045;-62
2022/03/23 02:23:00;;;;;;;62.20;33.67;;;;;;;;;;5036530;28;20140;-62
2022/03/23 02:25:27;;;;;;;63.22;31.92;;;;;;;;;;5014301;28;20052;-62
2022/03/23 02:27:54;;;;;;;60.95;32.75;;;;;;;;;;5031317;28;20045;-63
2022/03/23 02:30:21;;;;;;;63.55;33.22;;;;;;;;;;5029134;28;20060;-62
2022/03/23 02:32:47;;;;;;;64.68;31.95;;;;;;;;;;5028656;28;20045;-62
2022/03/23 02:35:14;;;;;;;61.17;31.35;;;;;;;;;;5050903;28;20045;-62
2022/03/23 02:37:40;;;;;;;53.95;30.42;;;;;;;;;;5048102;28;20074;-62
2022/03/23 02:40:08;;;;;;;58.85;31.67;;;;;;;;;;5029025;28;20058;-62
2022/03/23 02:42:34;;;;;;;64.18;33.13;;;;;;;;;;5045360;28;20048;-65
2022/03/23 02:45:00;;;;;;;54.78;31.35;;;;;;;;;;5046103;28;20065;-62
2022/03/23 02:47:26;;;;;;;62.17;32.75;;;;;;;;;;5021831;28;20055;-61
2022/03/23 02:49:52;;;;;;;60.92;31.17;;;;;;;;;;5027714;28;20041;-62
2022/03/23 02:52:18;;;;;;;61.67;34.10;;;;;;;;;;5046542;28;20504;-62
2022/03/23 03:03:30;;;;;;;58.97;31.38;;;;;;;;;;5093344;22;20053;-61
2022/03/23 03:06:32;;;;;;;65.47;32.58;;;6.10;99.90;;;;;;5077536;22;20049;31
2022/03/23 03:09:15;;;;;;;65.32;32.95;;;;;;;;;;5108303;22;20102;-61
2022/03/23 03:14:27;;;;;;;60.22;34.45;;;;;;;;;;5061428;22;20107;-61
2022/03/23 03:16:53;;;;;;;63.90;35.35;;;;;;;;;;5051385;28;20049;-62
2022/03/23 03:19:19;;;;;;;67.15;35.20;;;;;;;;;;5051169;28;20052;-62
2022/03/23 03:21:46;;;;;;;67.75;35.67;;;;;;;;;;5051209;28;20048;-62
2022/03/23 03:24:12;;;;;;;63.83;35.10;;;;;;;;;;5053138;28;20485;-62
2022/03/23 03:26:38;;;;;;;67.07;34.60;;;;;;;;;;5051713;28;20626;-62
2022/03/23 03:29:04;;;;;;;68.03;35.17;;;;;;;;;;5043631;28;20285;-61
2022/03/23 03:31:31;;;;;;;62.65;33.35;;;;;;;;;;5049519;28;20124;-62
2022/03/23 03:33:57;;;;;;;57.75;31.73;;;;;;;;;;5052216;28;20056;-62
2022/03/23 03:36:23;;;;;;;64.15;33.05;;;;;;;;;;5051267;28;20136;-62
2022/03/23 03:38:49;;;;;;;63.65;33.70;;;;;;;;;;5053516;28;20183;-62
2022/03/23 03:41:16;;;;;;;74.82;36.65;;;;;;;;;;5048897;28;20040;-62
2022/03/23 03:43:43;;;;;;;72.25;38.35;;;;;;;;;;5052075;28;20048;-61
2022/03/23 03:46:10;;;;;;;71.30;36.33;;;;;;;;;;5051149;28;20048;-62
2022/03/23 03:48:36;;;;;;;74.60;36.00;;;;;;;;;;5051554;28;20122;-61
2022/03/23 03:51:02;;;;;;;77.47;38.45;;;;;;;;;;5038018;28;20500;-61
2022/03/23 03:53:28;;;;;;;60.10;33.17;;;;;;;;;;5050428;28;20106;-62
2022/03/23 03:55:54;;;;;;;63.85;33.70;;;;;;;;;;5048973;28;20045;-61
2022/03/23 03:58:21;;;;;;;81.43;38.45;;;;;;;;;;5051571;28;20451;-61
2022/03/23 04:00:46;;;;;;;70.05;35.88;;;;;;;;;;5049344;28;20558;-61
2022/03/23 04:03:14;;;;;;;65.88;33.47;;;;;;;;;;5051808;28;20041;-62
2022/03/23 04:05:40;;;;;;;88.90;42.38;;;;;;;;;;5049648;28;20049;-62
2022/03/23 04:08:06;;;;;;;92.70;44.03;;;;;;;;;;5053084;28;20048;-62
2022/03/23 04:10:33;;;;;;;81.55;41.20;;;;;;;;;;5050131;28;20044;-62
2022/03/23 04:12:59;;;;;;;81.13;37.92;;;;;;;;;;5048997;28;20489;-62
2022/03/23 04:15:26;;;;;;;79.45;40.97;;;;;;;;;;5029951;28;20046;-63
2022/03/23 04:17:53;;;;;;;72.30;35.80;;;;;;;;;;5031730;28;20051;-62
2022/03/23 04:20:19;;;;;;;70.70;37.45;;;;;;;;;;5033987;28;20565;-62
2022/03/23 04:22:45;;;;;;;81.70;39.92;;;;;;;;;;5031730;28;20101;-62
2022/03/23 04:25:13;;;;;;;74.55;37.47;;;;;;;;;;5016993;28;20044;-61
2022/03/23 04:27:46;;;;;;;74.65;39.50;;;;;;;;;;5034119;28;20048;-62
2022/03/23 04:30:13;;;;;;;68.93;36.20;;;;;;;;;;5016942;28;20053;-62
2022/03/23 04:32:39;;;;;;;75.45;39.45;;;;;;;;;;5049460;28;20132;-61
2022/03/23 04:35:05;;;;;;;71.43;36.63;;;;;;;;;;5033133;28;20053;-61
2022/03/23 04:37:31;;;;;;;81.32;41.15;;;;;;;;;;5009743;28;20455;-62
2022/03/23 04:39:58;;;;;;;72.43;37.67;;;;;;;;;;5032271;28;20052;-62
2022/03/23 04:42:24;;;;;;;73.68;38.58;;;;;;;;;;5034457;28;20047;-62
2022/03/23 04:44:50;;;;;;;70.13;37.70;;;;;;;;;;5020541;28;20037;-62
2022/03/23 04:47:16;;;;;;;71.85;35.90;;;;;;;;;;5034360;28;20049;-63
2022/03/23 04:49:42;;;;;;;96.57;48.20;;;;;;;;;;5022731;28;20079;-62
2022/03/23 04:52:08;;;;;;;93.28;46.53;;;;;;;;;;5050075;28;20393;-62
2022/03/23 04:54:37;;;;;;;77.93;41.30;;;;;;;;;;4880270;22;20071;-63
2022/03/23 04:57:04;;;;;;;83.55;42.35;;;;;;;;;;5065749;22;20053;-62
2022/03/23 04:59:29;;;;;;;79.93;40.92;;;;;;;;;;5073317;28;20121;-62
2022/03/23 05:01:55;;;;;;;78.10;39.78;;;;;;;;;;5053518;28;20479;-62
2022/03/23 05:04:21;;;;;;;79.72;39.88;;;;;;;;;;5028176;28;20052;-62
2022/03/23 05:06:47;;;;;;;76.22;38.17;;;;;;;;;;5043221;28;20527;-62
2022/03/23 05:09:13;;;;;;;72.72;38.28;;;;;;;;;;5054584;28;20105;-62
2022/03/23 05:11:39;;;;;;;77.05;39.20;;;;;;;;;;5072262;28;20044;-62
2022/03/23 05:14:05;;;;;;;84.85;41.25;;;;;;;;;;5072518;28;20044;-62
2022/03/23 05:16:31;;;;;;;83.75;40.92;;;;;;;;;;5053719;28;20086;-62
2022/03/23 05:18:57;;;;;;;91.30;45.65;;;;;;;;;;5054476;28;20041;-63
2022/03/23 05:21:23;;;;;;;101.15;47.35;;;;;;;;;;5072165;28;20044;-62
2022/03/23 05:23:49;;;;;;;97.35;45.60;;;;;;;;;;5054490;28;20478;-63
2022/03/23 05:26:16;;;;;;;99.03;46.13;;;;;;;;;;5053793;28;20041;-63
2022/03/23 05:28:42;;;;;;;85.93;40.70;;;;;;;;;;5037481;28;20075;-63
2022/03/23 05:31:08;;;;;;;85.32;42.35;;;;;;;;;;5072177;28;20041;-63
2022/03/23 05:33:34;;;;;;;91.95;45.15;;;;;;;;;;5054493;28;20053;-63
2022/03/23 05:36:00;;;;;;;93.30;47.42;;;;;;;;;;5071339;28;20422;-63
2022/03/23 05:38:26;;;;;;;83.95;42.78;;;;;;;;;;5054271;28;20044;-64
2022/03/23 05:40:52;;;;;;;97.78;48.90;;;;;;;;;;5073686;28;20121;-63
2022/03/23 05:43:19;;;;;;;93.93;46.42;;;;;;;;;;5075900;28;20103;-63
2022/03/23 05:45:45;;;;;;;84.72;43.50;;;;;;;;;;5057283;28;20052;-63
2022/03/23 05:48:11;;;;;;;79.15;42.40;;;;;;;;;;5058242;28;20135;-63
2022/03/23 05:50:38;;;;;;;84.75;42.78;;;;;;;;;;5058300;28;20048;-63
2022/03/23 05:53:04;;;;;;;85.10;41.67;;;;;;;;;;5057848;28;20040;-63
2022/03/23 05:55:30;;;;;;;81.53;41.80;;;;;;;;;;5074988;28;20099;-63
2022/03/23 05:57:56;;;;;;;83.75;43.38;;;;;;;;;;5075634;28;20075;-64
2022/03/23 06:00:22;;;;;;;74.90;38.15;;;;;;;;;;5075648;28;20393;-63
2022/03/23 06:02:49;;;;;;;83.60;40.45;;;;;;;;;;5075779;28;20079;-63
2022/03/23 06:05:15;;;;;;;83.00;41.08;;;;;;;;;;5050424;28;20154;-63
2022/03/23 06:07:41;;;;;;;78.60;39.90;;;;;;;;;;5069365;28;20136;-63
2022/03/23 06:10:07;;;;;;;83.80;44.10;;;;;;;;;;5057833;28;20049;-63
2022/03/23 06:12:33;;;;;;;105.55;53.00;;;;;;;;;;5073943;28;20127;-63
2022/03/23 06:14:59;;;;;;;92.55;45.88;;;;;;;;;;5040797;28;20036;-63
2022/03/23 06:17:25;;;;;;;83.65;44.95;;;;;;;;;;5057239;28;20142;-63
2022/03/23 06:19:51;;;;;;;74.60;38.85;;;;;;;;;;5070920;28;20520;-63
2022/03/23 06:22:18;;;;;;;84.97;40.20;;;;;;;;;;5075067;28;20080;-63
2022/03/23 06:24:44;;;;;;;73.85;39.35;;;;;;;;;;5075013;28;20056;-63
2022/03/23 06:27:10;;;;;;;77.65;39.42;;;;;;;;;;5074334;28;20032;-63
2022/03/23 06:29:37;;;;;;;80.50;42.05;;;;;;;;;;5040814;28;20448;-63
2022/03/23 06:32:03;;;;;;;76.38;41.30;;;;;;;;;;5056511;28;20041;-63
2022/03/23 06:34:29;;;;;;;81.82;41.13;;;;;;;;;;5039943;28;20501;-64
2022/03/23 06:36:55;;;;;;;78.80;39.83;;;;;;;;;;5074993;28;20087;-63
2022/03/23 06:39:21;;;;;;;85.68;42.70;;;;;;;;;;5040431;28;20126;-64
2022/03/23 06:41:48;;;;;;;77.18;41.50;;;;;;;;;;5074412;28;20068;-63
2022/03/23 06:44:15;;;;;;;97.32;47.10;;;;;;;;;;5042812;28;20492;-63
2022/03/23 06:46:42;;;;;;;96.55;45.75;;;;;;;;;;5056719;28;20139;-63
2022/03/23 06:49:08;;;;;;;96.60;48.05;;;;;;;;;;5073489;28;20052;-63
2022/03/23 06:51:34;;;;;;;88.15;46.58;;;;;;;;;;5058829;28;20051;-64
2022/03/23 06:54:00;;;;;;;99.70;49.13;;;;;;;;;;5074331;28;20041;-63
2022/03/23 06:56:26;;;;;;;97.38;47.70;;;;;;;;;;5056624;28;20048;-63
2022/03/23 06:58:52;;;;;;;97.40;47.92;;;;;;;;;;5040241;28;20060;-63
2022/03/23 07:01:18;;;;;;;94.72;45.97;;;;;;;;;;5056704;28;20044;-63
2022/03/23 07:03:44;;;;;;;88.05;45.85;;;;;;;;;;5056675;28;20377;-64
2022/03/23 07:06:10;;;;;;;83.95;42.30;;;;;;;;;;5074514;28;20044;-63
2022/03/23 07:11:20;;;;;;;87.07;43.80;;;;;;;;;;5056342;28;20044;-63
2022/03/23 07:13:46;;;;;;;81.20;43.72;;;;;;;;;;5074143;28;20056;-63
2022/03/23 07:16:12;;;;;;;76.45;40.47;;;;;;;;;;5056224;28;20045;-64
2022/03/23 07:18:38;;;;;;;84.20;43.72;;;;;;;;;;5056417;28;20049;-63
2022/03/23 07:21:04;;;;;;;71.03;39.88;;;;;;;;;;5042754;28;20040;-64
2022/03/23 07:23:31;;;;;;;71.97;40.55;;;;;;;;;;5073525;28;20052;-63
2022/03/23 07:25:57;;;;;;;71.07;39.00;;;;;;;;;;5040017;28;20060;-63
2022/03/23 07:28:23;;;;;;;78.38;38.53;;;;;;;;;;5056616;28;20133;-64
2022/03/23 07:30:50;;;;;;;70.05;37.55;;;;;;;;;;5039990;28;20527;-63
2022/03/23 07:33:16;;;;;;;61.78;35.70;;;;;;;;;;5073404;28;20093;-64
2022/03/23 07:35:42;;;;;;;65.60;36.63;;;;;;;;;;5056096;28;20044;-63
2022/03/23 07:38:08;;;;;;;66.75;36.13;;;;;;;;;;5055994;28;20059;-63
2022/03/23 07:40:36;;;;;;;58.35;33.38;;;;;;;;;;5056159;28;20059;-64
2022/03/23 07:43:02;;;;;;;64.70;34.55;;;;;;;;;;5063946;28;20609;-64
2022/03/23 07:45:28;;;;;;;61.45;34.80;;;;;;;;;;5073642;28;20131;-63
2022/03/23 07:47:54;;;;;;;57.03;31.55;;;;;;;;;;5073117;28;20412;-64
2022/03/23 07:50:20;;;;;;;54.40;31.60;;;;;;;;;;5061709;28;20043;-63
2022/03/23 07:52:46;;;;;;;50.80;30.50;;;;;;;;;;5060327;28;20040;-64
2022/03/23 07:55:12;;;;;;;49.40;28.92;;;;;;;;;;5071690;28;20063;-64
2022/03/23 07:57:38;;;;;;;48.20;29.10;;;;;;;;;;5060750;28;20048;-62
2022/03/23 08:00:05;;;;;;;45.97;27.83;;;;;;;;;;5055408;28;20572;-61
2022/03/23 08:02:31;;;;;;;51.00;28.00;;;;;;;;;;5055555;28;20510;-62
2022/03/23 08:04:59;;;;;;;46.35;27.45;;;;;;;;;;5038433;28;20511;-62
2022/03/23 08:07:25;;;;;;;48.70;28.38;;;;;;;;;;5046173;28;20053;-62
2022/03/23 08:09:51;;;;;;;44.72;27.58;;;;;;;;;;5067969;28;20076;-61
2022/03/23 08:12:17;;;;;;;49.47;29.02;;;;;;;;;;5054452;28;20044;-61
2022/03/23 08:14:44;;;;;;;43.25;26.73;;;;;;;;;;5057793;28;20069;-61
2022/03/23 08:17:11;;;;;;;49.38;27.33;;;;;;;;;;5072399;28;20040;-61
2022/03/23 08:19:37;;;;;;;50.88;27.88;;;;;;;;;;5064788;28;20048;-62
2022/03/23 08:22:03;;;;;;;46.35;25.92;;;;;;;;;;5072507;28;20170;-61
2022/03/23 08:24:29;;;;;;;45.53;26.80;;;;;;;;;;5055354;28;20041;-61
2022/03/23 08:26:55;;;;;;;47.10;26.65;;;;;;;;;;5038212;28;20067;-61
2022/03/23 08:29:23;;;;;;;48.95;26.85;;;;;;;;;;5055028;28;20051;-59
2022/03/23 08:31:50;;;;;;;41.38;25.80;;;;;;;;;;5070349;28;20043;-67
2022/03/23 08:34:16;;;;;;;42.90;26.60;;;;;;;;;;5037325;28;20177;-65
2022/03/23 08:36:42;;;;;;;36.83;24.25;;;;;;;;;;5054684;28;20084;-64
2022/03/23 08:39:08;;;;;;;43.10;25.02;;;;;;;;;;5054766;28;20052;-66
2022/03/23 08:41:36;;;;;;;40.45;24.83;;;;;;;;;;5060192;28;20093;-66
2022/03/23 08:44:03;;;;;;;40.33;25.65;;;;;;;;;;5067352;28;20091;-64
2022/03/23 08:46:31;;;;;;;42.20;25.45;;;;;;;;;;5037544;28;20048;-65
2022/03/23 08:48:58;;;;;;;41.58;25.60;;;;;;;;;;5062221;28;20127;-66
2022/03/23 08:51:24;;;;;;;39.45;24.73;;;;;;;;;;5073009;28;20052;-64
2022/03/23 08:53:50;;;;;;;37.67;23.40;;;;;;;;;;5072145;28;20051;-64
2022/03/23 08:56:19;;;;;;;36.35;22.73;;;;;;;;;;5072952;28;20067;-63
2022/03/23 08:58:49;;;;;;;42.90;24.73;;;;;;;;;;5052337;28;20215;-65
2022/03/23 09:01:15;;;;;;;39.35;23.95;;;;;;;;;;5071225;28;20049;-66
2022/03/23 09:03:42;;;;;;;40.50;24.42;;;;;;;;;;5077200;28;20051;-65
2022/03/23 09:06:09;;;;;;;40.97;24.02;;;;;;;;;;5070000;28;20048;-66
2022/03/23 09:08:35;;;;;;;39.85;23.38;;;;;;;;;;5080151;28;20036;-68
2022/03/23 09:11:01;;;;;;;34.95;22.77;;;;;;;;;;5073802;28;20037;-64
2022/03/23 09:13:29;;;;;;;37.17;22.90;;;;;;;;;;5068089;28;20114;-66
2022/03/23 09:15:56;;;;;;;35.20;22.58;;;;;;;;;;5057145;28;20137;-65
2022/03/23 09:18:26;;;;;;;35.17;21.50;;;;;;;;;;5074677;28;20479;-65
2022/03/23 09:20:52;;;;;;;32.17;21.27;;;;;;;;;;5074525;28;20377;-65
2022/03/23 09:23:18;;;;;;;33.58;21.58;;;;;;;;;;5075179;28;20056;-65
2022/03/23 09:25:44;;;;;;;35.80;22.33;;;;;;;;;;5058048;28;20131;-67
2022/03/23 09:28:12;;;;;;;29.88;20.10;;;;;;;;;;5075958;28;20076;-66
2022/03/23 09:30:41;;;;;;;32.10;19.67;;;;;;;;;;5074329;28;20071;-68
2022/03/23 09:33:07;;;;;;;31.63;21.67;;;;;;;;;;5057293;28;20043;-69
2022/03/23 09:35:33;;;;;;;36.20;22.00;;;;;;;;;;5041300;28;20044;-68
2022/03/23 09:38:03;;;;;;;34.45;22.20;;;;;;;;;;5058118;28;20053;-66
2022/03/23 09:40:31;;;;;;;33.38;21.63;;;;;;;;;;5039181;28;20053;-68
2022/03/23 09:43:01;;;;;;;32.55;20.20;;;;;;;;;;5040242;28;20507;-68
2022/03/23 09:48:00;;;;;;;32.88;20.70;;;;;;;;;;5058041;28;20052;-68
2022/03/23 09:50:29;;;;;;;38.85;22.02;;;;;;;;;;5057561;28;20058;-68
2022/03/23 09:52:56;;;;;;;32.83;22.23;;;;;;;;;;5074783;28;20130;-68
2022/03/23 09:55:23;;;;;;;28.88;18.52;;;;;;;;;;5075451;28;20105;-67
2022/03/23 09:57:49;;;;;;;27.67;18.33;;;;;;;;;;5056119;28;20055;-67
2022/03/23 10:00:16;;;;;;;27.85;19.30;;;17.70;98.30;;;;;;5024349;28;20076;-67
2022/03/23 10:02:57;;;;;;;29.35;19.80;;;;;;;;;;5039769;28;20056;-68
2022/03/23 10:05:26;;;;;;;29.45;19.77;;;;;;;;;;5057707;28;20052;-68
2022/03/23 10:08:16;;;;;;;30.13;19.27;;;17.60;95.40;;;;;;5058411;28;20123;-68
2022/03/23 10:10:43;;;;;;;;;;;;;;;;;;5075674;28;20064;-69
2022/03/23 10:13:42;;;;;;;25.13;17.70;;;17.90;94.30;;;;;;5074977;28;19927;-69
2022/03/23 10:16:45;;;;;;;26.08;16.92;;;17.80;94.10;;;;;;5064473;28;20071;-69
2022/03/23 10:19:13;;;;;;;23.60;15.35;;;;;;;;;;5056957;28;20048;-68
2022/03/23 10:21:42;;;;;;;21.58;15.45;;;18.00;94.00;;;;;;5057422;28;20036;-69
2022/03/23 10:24:08;;;;;;;20.95;14.48;;;;;;;;;;5074782;28;20119;-69
2022/03/23 10:26:38;;;;;;;23.67;13.38;;;18.30;91.40;;;;;;5055776;28;20147;-69
2022/03/23 10:29:05;;;;;;;20.42;13.85;;;;;;;;;;5040731;28;20074;-69
2022/03/23 10:31:32;;;;;;;29.38;14.50;;;;;;;;;;5074566;28;20558;-67
2022/03/23 10:34:09;;;;;;;20.45;14.10;;;;;;;;;;5074897;28;20056;-67
2022/03/23 10:36:51;;;;;;;21.95;13.70;;;;;;;;;;5038930;28;20110;-68
2022/03/23 10:39:18;;;;;;;26.25;14.57;;;;;;;;;;5074140;28;20600;-70
2022/03/23 10:41:55;;;;;;;25.35;15.15;;;;;;;;;;5070296;28;20072;-69
2022/03/23 10:44:21;;;;;;;33.78;16.50;;;;;;;;;;5057356;28;20071;-70
2022/03/23 10:46:47;;;;;;;28.90;16.05;;;;;;;;;;5056757;28;20492;-69
2022/03/23 10:49:16;;;;;;;21.95;14.13;;;;;;;;;;5052883;28;20044;-69
2022/03/23 10:51:43;;;;;;;26.00;14.82;;;;;;;;;;5056554;28;20499;-69
2022/03/23 10:54:18;;;;;;;24.98;14.65;;;;;;;;;;5057242;28;20051;-70
2022/03/23 10:56:45;;;;;;;22.65;13.10;;;;;;;;;;5056481;28;20106;-70
2022/03/23 10:59:17;;;;;;;24.25;14.30;;;;;;;;;;5056103;28;20051;-70
2022/03/23 11:01:55;;;;;;;24.95;16.15;;;;;;;;;;5056087;28;20036;-70
2022/03/23 11:04:22;;;;;;;26.70;15.10;;;;;;;;;;5074295;28;20072;-71
2022/03/23 11:06:49;;;;;;;21.55;13.07;;;;;;;;;;5056375;28;20060;-67
2022/03/23 11:18:11;;;;;;;24.10;9.60;;;;;;;;;;4971556;28;20047;-70
2022/03/23 11:20:40;;;;;;;29.90;12.70;;;;;;;;;;4972875;28;20055;-70
2022/03/23 11:23:19;;;;;;;23.25;10.20;;;;;;;;;;4940815;28;20126;-66
2022/03/23 11:25:46;;;;;;;24.58;11.60;;;;;;;;;;4973139;28;20050;-66
2022/03/23 11:28:13;;;;;;;30.58;11.20;;;19.20;88.90;;;;;;4972890;28;20062;-66
2022/03/23 11:30:39;;;;;;;24.02;11.35;;;;;;;;;;4972876;28;20053;-64
2022/03/23 11:33:07;;;;;;;21.83;11.20;;;;;;;;;;4972397;28;20090;-62
2022/03/23 11:35:34;;;;;;;24.90;11.18;;;;;;;;;;4956924;28;20058;-62
2022/03/23 11:38:01;;;;;;;26.02;10.82;;;;;;;;;;4971525;28;20054;-63
2022/03/23 11:40:27;;;;;;;19.58;9.75;;;;;;;;;;4959478;28;20141;-62
2022/03/23 11:42:53;;;;;;;23.92;11.40;;;;;;;;;;4956520;28;20042;-60
2022/03/23 11:45:19;;;;;;;20.30;10.73;;;;;;;;;;4956898;28;20133;-63
2022/03/23 11:47:51;;;;;;;20.77;10.20;;;;;;;;;;4972557;28;20074;-62
2022/03/23 11:50:21;;;;;;;23.63;9.85;;;;;;;;;;4962482;28;20050;-66
2022/03/23 11:52:55;;;;;;;20.10;9.15;;;;;;;;;;5049066;28;20064;-65
2022/03/23 11:55:42;;;;;;;21.88;9.60;;;;;;;;;;5070879;28;20036;-63
2022/03/23 11:58:16;;;;;;;17.63;8.77;;;;;;;;;;5051942;28;20368;-66
2022/03/23 12:00:46;;;;;;;19.60;9.05;;;;;;;;;;5068408;28;20503;-61
2022/03/23 12:03:12;;;;;;;25.17;11.25;;;;;;;;;;5071646;28;20544;-62
2022/03/23 12:05:53;;;;;;;24.92;9.35;;;;;;;;;;5071503;28;20083;-63
2022/03/23 12:08:49;;;;;;;26.30;10.80;;;19.50;88.20;;;;;;5050596;28;20040;-62
2022/03/23 12:11:31;;;;;;;17.48;8.77;;;;;;;;;;5072304;28;20048;-63
2022/03/23 12:13:58;;;;;;;21.10;9.10;;;;;;;;;;5055014;28;20071;-64
2022/03/23 12:16:42;;;;;;;19.85;8.85;;;;;;;;;;5073396;28;20044;-63
2022/03/23 12:19:10;;;;;;;21.60;9.75;;;;;;;;;;5073045;28;20131;-64
2022/03/23 12:21:44;;;;;;;18.98;8.98;;;;;;;;;;5072236;28;20050;-64
2022/03/23 12:24:33;;;;;;;20.15;10.15;;;;;;;;;;5054993;28;20036;-61
2022/03/23 12:27:02;;;;;;;15.80;9.23;;;;;;;;;;5071830;28;20045;-65
2022/03/23 12:29:33;;;;;;;22.98;8.32;;;;;;;;;;5072618;28;20298;-59
2022/03/23 12:32:08;;;;;;;28.38;10.65;;;;;;;;;;5054460;28;20059;-63
2022/03/23 12:34:35;;;;;;;15.35;8.70;;;;;;;;;;5055011;28;20037;-63
2022/03/23 12:37:27;;;;;;;17.25;9.32;;;;;;;;;;5072010;28;20051;-65
2022/03/23 12:39:53;;;;;;;23.20;10.07;;;;;;;;;;5050147;28;20056;-60
2022/03/23 12:42:19;;;;;;;25.50;10.70;;;;;;;;;;5054677;28;20093;-60
2022/03/23 12:44:47;;;;;;;23.50;9.05;;;;;;;;;;5072791;28;20048;-60
2022/03/23 12:47:16;;;;;;;18.85;8.63;;;;;;;;;;5072015;28;20044;-59
2022/03/23 12:58:39;;;;;;;22.80;9.02;;;;;;;;;;5051574;28;20053;-59
2022/03/23 13:01:13;;;;;;;25.67;9.23;;;;;;;;;;5034491;28;20571;-59
2022/03/23 13:03:41;;;;;;;21.08;8.70;;;;;;;;;;5039141;28;20048;-59
2022/03/23 13:06:07;;;;;;;20.42;10.30;;;;;;;;;;5072710;28;20056;-59
2022/03/23 13:08:35;;;;;;;19.80;8.88;;;;;;;;;;5072746;28;20051;-60
2022/03/23 13:11:03;;;;;;;26.85;8.57;;;;;;;;;;5061636;28;20063;-59
2022/03/23 13:13:33;;;;;;;21.05;8.27;;;20.00;84.50;;;;;;5099858;22;20060;-59
2022/03/23 13:16:00;;;;;;;16.23;8.93;;;;;;;;;;5099895;22;20057;-62
2022/03/23 13:18:30;;;;;;;18.33;9.25;;;20.00;86.30;;;;;;5079138;28;20091;-61
2022/03/23 13:20:59;;;;;;;17.92;8.75;;;;;;;;;;5070841;28;20040;-60
2022/03/23 13:23:25;;;;;;;20.35;9.18;;;;;;;;;;5076250;28;20044;-60
2022/03/23 13:26:04;;;;;;;24.55;10.05;;;;;;;;;;5072696;28;20567;-61
2022/03/23 13:28:32;;;;;;;17.20;8.77;;;;;;;;;;5072049;28;20515;-60
2022/03/23 13:31:03;;;;;;;23.98;8.18;;;;;;;;;;5072006;28;20048;-59
2022/03/23 13:33:37;;;;;;;18.15;7.20;;;;;;;;;;5072221;28;20046;-71
2022/03/23 13:36:04;;;;;;;22.15;8.80;;;;;;;;;;5039196;28;20043;-71
2022/03/23 13:38:37;;;;;;;16.33;6.82;;;;;;;;;;5054054;28;20098;-68
2022/03/23 13:46:50;;;;;;;23.55;8.40;;;;;;;;;;4889726;26;20051;-66
2022/03/23 13:49:18;;;;;;;19.08;6.93;;;;;;;;;;5070505;28;20045;-60
2022/03/23 13:51:45;;;;;;;18.75;7.55;;;;;;;;;;5072408;28;20160;-57
2022/03/23 13:54:15;;;;;;;15.88;7.20;;;;;;;;;;5053823;28;20048;-58
2022/03/23 13:56:44;;;;;;;17.73;7.10;;;;;;;;;;5070806;28;20083;-60
2022/03/23 13:59:12;;;;;;;18.85;7.20;;;;;;;;;;5054220;28;20040;-60
2022/03/23 14:01:40;;;;;;;18.08;7.10;;;;;;;;;;5072312;28;20056;-60
2022/03/23 14:04:07;;;;;;;16.70;7.28;;;;;;;;;;5075042;28;20127;-59
2022/03/23 14:06:41;;;;;;;16.40;6.95;;;;;;;;;;5061775;28;20123;-63
2022/03/23 14:09:08;;;;;;;18.25;7.60;;;;;;;;;;5073266;28;20443;-58
2022/03/23 14:11:47;;;;;;;25.02;7.20;;;;;;;;;;5058057;28;20087;-59
2022/03/23 14:14:14;;;;;;;17.38;5.97;;;;;;;;;;5074963;28;20492;-57
2022/03/23 14:16:40;;;;;;;18.20;7.07;;;;;;;;;;5075703;28;20079;-59
2022/03/23 14:19:07;;;;;;;17.80;6.35;;;;;;;;;;5057507;28;20040;-57
2022/03/23 14:21:34;;;;;;;19.25;7.03;;;;;;;;;;5070870;28;20557;-57
2022/03/23 14:24:00;;;;;;;25.10;6.90;;;;;;;;;;5070497;28;20091;-57
2022/03/23 14:26:26;;;;;;;16.52;6.30;;;;;;;;;;5067724;28;20083;-57
2022/03/23 14:28:54;;;;;;;16.33;6.28;;;;;;;;;;5075129;28;20135;-56
2022/03/23 14:31:22;;;;;;;19.73;6.70;;;;;;;;;;5075060;28;20092;-58
2022/03/23 14:34:14;;;;;;;15.13;6.18;;;;;;;;;;5040936;28;20091;-56
2022/03/23 14:36:41;;;;;;;22.92;7.97;;;;;;;;;;5072246;28;20056;-57
2022/03/23 14:39:21;;;;;;;16.13;6.30;;;;;;;;;;5068949;28;20076;-60
2022/03/23 14:41:54;;;;;;;;;;;19.30;83.30;;;;;;5072762;28;20040;-59
2022/03/23 14:44:34;;;;;;;21.92;6.60;;;;;;;;;;5055211;28;19925;-58
2022/03/23 14:47:01;;;;;;;18.60;6.85;;;;;;;;;;5048440;28;20087;-61
2022/03/23 14:49:37;;;;;;;21.13;6.93;;;;;;;;;;5048502;28;20065;-74
2022/03/23 14:52:07;;;;;;;20.67;6.80;;;;;;;;;;5069963;28;20048;-73
2022/03/23 14:54:37;;;;;;;18.90;7.53;;;;;;;;;;5053661;28;20052;-73
2022/03/23 14:57:03;;;;;;;15.73;6.85;;;;;;;;;;5053616;28;20099;-74
2022/03/23 14:59:31;;;;;;;21.20;6.97;;;;;;;;;;5019423;28;20123;-74
2022/03/23 15:01:59;;;;;;;19.15;6.10;;;;;;;;;;5054609;28;20107;-74